FTW weather

Fort Worth Meacham International Airport
Fort Worth, Texas, United States

Public forecast

Using degrees Fahrenheit for public forecast. Weather courtesy of forecast.io.

Current aviation weather report (METAR) for Fort Worth Meacham International Airport

Retrieved 2019/10/20 04:53 UTC (26 minutes ago):

KFTW 200453Z 33005KT 10SM CLR 17/11 A2982 RMK AO2 SLP091 T01720111

Aviation forecast (TAF) for Fort Worth Meacham International Airport

Retrieved 2019-10-20 00:33 UTC (5 hours ago):

TAF KFTW 192330Z 2000/2024 34009KT P6SM SKC FM201500 17004KT P6SM SKC FM202100 18015KT P6SM SCT040